Aérodrome :
LOGIN :

S'inscrire | Disclaimer

   EN    FR    IT 

 










Légende :    VFR   VFR Marginal   IFR   IFR Intensif   IFR Très Intensif
Visi : 
Plafond : 
>= 8 km
>= 3000ft
5 à 8 km
1000 à 3000 ft
1500m à 5 km
500 à 1000 ft
800 à 1500m
200 à 500 ft
< 800m
< 200 ft
Symboles :   Orages  Brouillard  Fortes neiges  Fortes précipitations  Vent > 20 kt
SIGMETs :   Divers  Orages  Givrage  Turbulence  Onde Orograph.  Cendres Volcan.







- Altitude de l'aérodrome : 3368 ft


LSGC - Les Eplatures

DERNIER METAR :
  • 291720Z 15005KT 120V220 CAVOK 09/M03 Q1014

METARs EXPIRÉS :
  • 291650Z 15006KT 100V190 CAVOK 09/M03 Q1014
  • 291620Z 16005KT 130V190 CAVOK 09/M06 Q1014
  • 291550Z 14005KT 100V210 CAVOK 09/M04 Q1014
  • 291520Z 11005KT 040V150 CAVOK 10/M03 Q1015
  • 291450Z 17005KT 120V240 CAVOK 09/M02 Q1015

TAF TAF LSGC
Valide du 29 à 15h jusqu'au 30 à 00h UTC


291425Z 2915/2924 08007KT CAVOK
BECMG 2918/2920 VRB03KT
Pas de NOTAMs connus pour ce terrain.



MET'MAP, la Météo Aéronautique d'un coup d'oeil ! - Copyright ORBIFLY Décembre 2007 - Disclaimer

ORBIFLY MET'MAP TEAM :

Programmation & Développement : Alexandra Zaïnal
Conception & Développement : Baudouin d'Aumeries
Co-Programmation & Développement : Marc-Olivier Méhu
Soutien technique & logistique : Manuel Goepfert

Contact : metmap@orbifly.com




SOURCES & CREDITS :

   NOAA